Time;durP1;ratioP1;P1;durP2;ratioP2;P2;SDS_P1;SDS_P2;PMS_P1;PMS_P2;Temp;Humidity;BMP_temperature;BMP_pressure;BME280_temperature;BME280_humidity;BME280_pressure;Samples;Min_cycle;Max_cycle;Signal;HPM_P1;HPM_P2
2023/05/22 00:01:31;;;;;;;11.02;10.13;;;;;;;18.20;73.71;95171.34;4977087;28;20220;-87
2023/05/22 00:03:58;;;;;;;11.27;10.13;;;;;;;18.06;74.87;95170.06;4973965;28;20200;-87
2023/05/22 00:06:26;;;;;;;11.57;10.57;;;;;;;18.20;73.80;95166.16;4971808;28;20219;-87
2023/05/22 00:08:53;;;;;;;10.90;10.00;;;;;;;18.32;73.65;95179.09;4971093;28;20200;-87
2023/05/22 00:11:19;;;;;;;10.82;9.93;;;;;;;18.42;73.52;95168.88;4971471;28;20200;-87
2023/05/22 00:13:49;;;;;;;10.90;9.98;;;;;;;18.48;72.67;95180.16;4971557;28;20200;-87
2023/05/22 00:16:16;;;;;;;11.02;10.02;;;;;;;18.51;72.41;95184.91;4971849;28;20708;-87
2023/05/22 00:18:43;;;;;;;10.98;9.80;;;;;;;18.47;72.84;95184.56;4971506;28;20208;-87
2023/05/22 00:21:10;;;;;;;10.43;9.43;;;;;;;18.46;72.04;95179.63;4971446;28;20223;-87
2023/05/22 00:23:37;;;;;;;10.98;10.07;;;;;;;18.34;73.77;95187.47;4972822;28;20600;-88
2023/05/22 00:26:03;;;;;;;10.93;9.82;;;;;;;18.31;73.59;95182.75;4971879;28;20232;-88
2023/05/22 00:28:30;;;;;;;11.02;10.05;;;;;;;18.36;73.13;95177.63;4971412;28;20205;-87
2023/05/22 00:30:56;;;;;;;12.85;11.63;;;;;;;18.36;73.15;95179.44;4971358;28;20204;-87
2023/05/22 00:33:23;;;;;;;10.73;9.77;;;;;;;18.27;73.52;95181.66;4971156;28;20223;-88
2023/05/22 00:35:53;;;;;;;11.10;10.10;;;;;;;18.20;73.26;95176.56;4971920;28;20231;-87
2023/05/22 00:38:31;;;;;;;11.15;10.15;;;;;;;18.19;73.75;95182.81;4971489;28;20574;-87
2023/05/22 00:40:57;;;;;;;10.32;9.43;;;;;;;18.28;72.90;95175.38;4970971;28;20224;-87
2023/05/22 00:43:24;;;;;;;10.38;9.52;;;;;;;18.26;72.94;95173.03;4970866;28;20219;-88
2023/05/22 00:45:51;;;;;;;10.45;9.45;;;;;;;18.20;72.78;95175.78;4970946;28;20911;-88
2023/05/22 00:48:18;;;;;;;10.50;9.50;;;;;;;18.10;72.84;95171.16;4970820;28;20204;-87
2023/05/22 00:50:44;;;;;;;11.88;10.77;;;;;;;17.93;73.81;95168.50;4971218;28;20576;-88
2023/05/22 00:53:13;;;;;;;11.48;10.48;;;;;;;17.92;74.29;95176.56;4971042;28;20563;-88
2023/05/22 00:55:43;;;;;;;10.65;9.65;;;;;;;17.80;74.61;95174.00;4970756;28;20223;-88
2023/05/22 00:58:13;;;;;;;11.27;10.27;;;;;;;17.77;74.66;95164.03;4981398;28;20204;-87
2023/05/22 01:00:41;;;;;;;11.25;10.15;;;;;;;17.59;75.64;95166.78;4982011;28;20223;-88
2023/05/22 01:03:09;;;;;;;11.85;10.90;;;;;;;17.39;76.82;95169.75;4970652;28;20215;-88
2023/05/22 01:05:36;;;;;;;11.95;10.85;;;;;;;17.26;76.98;95170.00;4972657;28;20228;-87
2023/05/22 01:08:03;;;;;;;12.30;11.10;;;;;;;17.16;78.43;95173.16;4971164;28;20204;-88
2023/05/22 01:10:31;;;;;;;12.25;11.00;;;;;;;17.16;78.56;95175.78;4971060;28;20568;-88
2023/05/22 01:13:08;;;;;;;10.82;9.82;;;;;;;17.28;78.62;95178.38;4971032;28;20211;-88
2023/05/22 01:15:39;;;;;;;10.75;9.75;;;;;;;17.44;77.03;95182.88;4971130;28;20728;-87
2023/05/22 01:18:11;;;;;;;10.95;10.02;;;;;;;17.56;76.36;95175.84;4970540;28;20299;-87
2023/05/22 01:20:43;;;;;;;11.73;10.60;;;;;;;17.56;76.17;95182.84;4970385;28;20692;-87
2023/05/22 01:23:43;;;;;;;11.48;10.32;;;;;;;17.58;75.91;95186.03;4970841;28;20208;-87
2023/05/22 01:26:22;;;;;;;11.13;10.13;;;;;;;17.54;75.79;95192.69;4971017;28;20212;-87
2023/05/22 01:29:10;;;;;;;10.85;9.75;;;;;;;17.59;75.13;95190.22;4970449;28;20207;-87
2023/05/22 01:31:41;;;;;;;11.70;10.60;;;;;;;17.57;74.90;95190.44;4969990;28;20204;-87
2023/05/22 01:34:12;;;;;;;12.20;10.55;;;;;;;17.44;75.58;95187.28;4970460;28;20228;-87
2023/05/22 01:36:41;;;;;;;11.23;10.23;;;;;;;17.43;75.49;95194.31;4970722;28;20231;-87
2023/05/22 01:39:08;;;;;;;11.05;10.15;;;;;;;17.25;77.27;95197.84;4970117;28;20204;-88
2023/05/22 01:41:35;;;;;;;10.95;9.95;;;;;;;17.17;77.08;95199.97;4969629;28;20278;-88
2023/05/22 01:44:02;;;;;;;11.70;10.60;;;;;;;17.21;77.52;95203.72;4970261;28;20612;-87
2023/05/22 01:46:32;;;;;;;11.95;10.85;;;;;;;17.34;75.85;95202.69;4970435;28;20204;-88
2023/05/22 01:49:00;;;;;;;10.98;9.98;;;;;;;17.30;76.34;95198.97;4970370;28;20298;-87
2023/05/22 01:51:39;;;;;;;11.43;10.00;;;;;;;17.35;75.67;95191.25;4970085;28;20208;-88
2023/05/22 01:54:17;;;;;;;10.50;9.60;;;;;;;17.30;75.98;95197.16;4977906;28;20306;-87
2023/05/22 01:56:48;;;;;;;11.02;10.02;;;;;;;17.28;75.93;95199.19;4989071;28;20223;-87
2023/05/22 01:59:24;;;;;;;11.50;10.40;;;;;;;17.39;75.30;95193.19;4989485;28;20208;-87
2023/05/22 02:01:52;;;;;;;11.35;10.32;;;;;;;17.45;74.88;95200.09;4970789;28;20853;-88
2023/05/22 02:04:22;;;;;;;10.88;9.63;;;;;;;17.45;74.79;95207.09;4969829;28;20234;-88
2023/05/22 02:10:12;;;;;;;9.93;9.00;;;;;;;17.43;73.54;95206.53;4970748;28;20243;-87
2023/05/22 02:12:42;;;;;;;10.57;9.65;;;;;;;17.45;73.43;95214.91;4982834;28;20196;-88
2023/05/22 02:15:09;;;;;;;11.35;9.48;;;;;;;17.44;73.69;95218.53;4987827;28;20215;-87
2023/05/22 02:17:39;;;;;;;10.55;9.55;;;;;;;17.53;72.90;95217.16;4989144;28;20211;-87
2023/05/22 02:20:13;;;;;;;10.15;9.35;;;;;;;17.61;72.27;95214.19;4989336;28;20207;-88
2023/05/22 02:22:41;;;;;;;10.80;9.80;;;;;;;17.59;71.49;95213.63;4989062;28;20291;-88
2023/05/22 02:25:12;;;;;;;10.88;9.77;;;;;;;17.61;71.36;95215.00;4989150;28;20223;-88
2023/05/22 02:27:39;;;;;;;11.02;10.00;;;;;;;17.65;71.23;95204.94;4989548;28;20204;-87
2023/05/22 02:30:07;;;;;;;11.15;10.07;;;;;;;17.66;70.37;95206.53;4988932;28;20215;-88
2023/05/22 02:32:33;;;;;;;10.55;9.65;;;;;;;17.63;70.29;95201.75;4992588;28;20876;-88
2023/05/22 02:35:00;;;;;;;10.15;9.20;;;;;;;17.64;69.85;95210.34;4993010;28;20223;-87
2023/05/22 02:37:27;;;;;;;10.55;9.35;;;;;;;17.59;68.88;95203.22;4992680;28;20206;-87
2023/05/22 02:39:54;;;;;;;9.23;8.43;;;;;;;17.63;68.04;95201.75;4971657;28;20212;-88
2023/05/22 02:42:20;;;;;;;10.00;9.18;;;;;;;17.56;68.08;95196.66;4973286;28;20314;-87
2023/05/22 02:44:47;;;;;;;9.38;8.48;;;;;;;17.57;67.95;95198.25;4973140;28;20224;-87
2023/05/22 02:47:14;;;;;;;9.80;8.82;;;;;;;17.53;68.34;95199.72;4973207;28;20215;-87
2023/05/22 02:49:40;;;;;;;9.80;8.90;;;;;;;17.56;67.85;95201.06;4981083;28;20671;-87
2023/05/22 02:52:07;;;;;;;9.23;8.20;;;;;;;17.56;67.59;95201.06;4991215;28;20203;-87
2023/05/22 02:54:37;;;;;;;9.73;8.82;;;;;;;17.58;66.96;95192.00;4992779;28;20231;-87
2023/05/22 02:57:04;;;;;;;9.40;8.48;;;;;;;17.55;66.49;95194.28;4992970;28;20229;-88
2023/05/22 02:59:31;;;;;;;9.32;8.52;;;;;;;17.57;65.87;95200.84;4993057;28;20207;-87
2023/05/22 03:02:00;;;;;;;8.85;8.05;;;;;;;17.56;65.86;95203.69;4973161;28;20216;-88
2023/05/22 03:04:26;;;;;;;9.25;8.35;;;;;;;17.55;66.14;95202.88;4973041;28;20231;-88
2023/05/22 03:06:56;;;;;;;9.77;8.70;;;;;;;17.52;66.69;95198.13;4973132;28;20215;-87
2023/05/22 03:09:22;;;;;;;8.88;8.07;;;;;;;17.53;66.03;95207.53;4973185;28;20208;-88
2023/05/22 03:11:50;;;;;;;8.50;7.70;;;;;;;17.48;65.32;95207.44;4972606;28;20200;-87
2023/05/22 03:14:16;;;;;;;9.10;8.20;;;;;;;17.51;65.04;95201.75;4972551;28;20216;-87
2023/05/22 03:16:43;;;;;;;9.18;7.85;;;;;;;17.48;64.88;95204.03;4973129;28;20208;-87
2023/05/22 03:19:10;;;;;;;9.02;8.23;;;;;;;17.48;65.47;95207.44;4972757;28;20215;-88
2023/05/22 03:21:37;;;;;;;8.68;7.97;;;;;;;17.50;65.61;95210.59;4972505;28;20224;-87
2023/05/22 03:24:11;;;;;;;9.52;8.60;;;;;;;17.45;66.16;95215.69;4972891;28;20228;-87
2023/05/22 03:26:38;;;;;;;10.52;8.95;;;;;;;17.31;67.03;95218.78;4972519;28;20560;-87
2023/05/22 03:29:06;;;;;;;9.70;8.80;;;;;;;17.01;68.43;95222.25;4972352;28;20208;-88
2023/05/22 03:31:33;;;;;;;10.27;8.80;;;;;;;16.96;69.16;95235.13;4973025;28;20203;-88
2023/05/22 03:34:00;;;;;;;9.48;8.68;;;;;;;16.85;69.57;95220.31;4972543;28;20200;-88
2023/05/22 03:36:26;;;;;;;9.50;8.55;;;;;;;16.79;69.88;95229.78;4972839;28;20200;-87
2023/05/22 03:38:53;;;;;;;9.23;8.43;;;;;;;16.58;70.63;95223.28;4972471;28;20204;-87
2023/05/22 03:41:19;;;;;;;9.40;8.50;;;;;;;16.57;70.37;95223.50;4971601;28;20230;-87
2023/05/22 03:43:46;;;;;;;10.50;8.95;;;;;;;16.56;70.13;95233.09;4972435;28;20200;-87
2023/05/22 03:46:14;;;;;;;9.93;9.05;;;;;;;16.53;70.49;95233.56;4980564;28;20207;-87
2023/05/22 03:48:40;;;;;;;10.63;9.55;;;;;;;16.59;70.25;95234.47;4986641;28;20199;-87
2023/05/22 03:51:07;;;;;;;9.88;8.98;;;;;;;16.60;69.85;95225.66;4991783;28;20199;-88
2023/05/22 03:53:33;;;;;;;9.50;8.63;;;;;;;16.61;70.27;95236.84;4991656;28;20218;-88
2023/05/22 03:56:02;;;;;;;9.85;8.95;;;;;;;16.59;70.88;95232.66;4991425;28;20230;-87
2023/05/22 03:58:28;;;;;;;9.52;8.73;;;;;;;16.57;71.02;95237.28;4991976;28;20208;-87
2023/05/22 04:00:57;;;;;;;9.77;8.88;;;;;;;16.55;70.98;95238.53;4980951;28;20234;-88
2023/05/22 04:03:25;;;;;;;11.02;9.93;;;;;;;16.47;71.63;95231.84;4971470;28;20324;-87
2023/05/22 04:05:51;;;;;;;11.13;10.02;;;;;;;16.43;71.63;95235.91;4972339;28;20231;-87
2023/05/22 04:08:18;;;;;;;10.45;9.55;;;;;;;16.47;71.22;95231.84;4971991;28;20577;-88
2023/05/22 04:10:45;;;;;;;9.68;8.82;;;;;;;16.51;70.72;95230.41;4971627;28;20196;-87
2023/05/22 04:13:12;;;;;;;9.18;8.32;;;;;;;16.50;71.28;95241.81;4972174;28;20710;-88
2023/05/22 04:15:40;;;;;;;9.88;8.98;;;;;;;16.39;72.10;95231.34;4971615;28;20228;-88
2023/05/22 04:18:07;;;;;;;10.45;9.40;;;;;;;16.34;72.82;95232.03;4971982;28;20749;-88
2023/05/22 04:20:35;;;;;;;9.65;8.68;;;;;;;16.49;72.03;95236.81;4971760;28;20212;-87
2023/05/22 04:23:01;;;;;;;10.50;9.40;;;;;;;16.58;71.29;95238.09;4971600;28;20208;-88
2023/05/22 04:25:28;;;;;;;9.63;8.60;;;;;;;16.68;70.79;95237.59;4971684;28;20231;-87
2023/05/22 04:27:55;;;;;;;13.32;9.68;;;;;;;16.72;70.62;95236.94;4971789;28;20788;-87
2023/05/22 04:30:24;;;;;;;9.88;8.98;;;;;;;16.82;70.68;95238.97;4971356;28;20211;-88
2023/05/22 04:32:51;;;;;;;10.23;9.23;;;;;;;16.88;70.50;95245.88;4976856;28;20740;-87
2023/05/22 04:35:18;;;;;;;10.27;8.90;;;;;;;16.76;71.94;95239.84;4971244;28;20232;-87
2023/05/22 04:37:46;;;;;;;10.40;8.70;;;;;;;16.72;71.98;95238.72;4971166;28;20263;-88
2023/05/22 04:40:14;;;;;;;44.35;39.20;;;;;;;16.73;72.21;95237.72;4971710;28;20219;-87
2023/05/22 04:42:43;;;;;;;16.45;13.20;;;;;;;16.86;72.30;95245.31;4985675;28;20247;-88
2023/05/22 04:45:12;;;;;;;11.77;10.60;;;;;;;16.99;71.49;95249.50;4972127;28;20732;-88
2023/05/22 04:47:40;;;;;;;10.57;9.57;;;;;;;17.11;70.66;95243.31;4971549;28;20200;-88
2023/05/22 04:50:07;;;;;;;10.50;9.40;;;;;;;17.19;70.26;95248.16;4970918;28;20211;-88
2023/05/22 04:52:34;;;;;;;10.63;9.00;;;;;;;17.35;69.35;95243.31;4971251;28;20204;-87
2023/05/22 04:55:01;;;;;;;10.70;9.25;;;;;;;17.38;69.45;95246.25;4970470;28;20227;-87
2023/05/22 04:57:28;;;;;;;10.40;9.30;;;;;;;17.49;68.75;95253.28;4971225;28;20219;-87
2023/05/22 04:59:55;;;;;;;13.75;12.45;;;;;;;17.48;68.61;95250.91;4971799;28;20231;-87
2023/05/22 05:02:22;;;;;;;49.33;44.10;;;;;;;17.57;68.13;95254.72;4970378;28;20220;-87
2023/05/22 05:04:48;;;;;;;32.65;26.42;;;;;;;17.66;68.07;95248.19;4970724;28;20232;-87
2023/05/22 05:07:16;;;;;;;17.48;15.68;;;;;;;17.81;67.28;95256.31;4971072;28;20211;-88
2023/05/22 05:09:42;;;;;;;11.98;10.77;;;;;;;17.96;66.88;95250.63;4970746;28;20200;-88
2023/05/22 05:12:13;;;;;;;12.75;11.52;;;;;;;18.05;66.65;95249.25;4970632;28;20208;-88
2023/05/22 05:14:39;;;;;;;13.32;11.98;;;;;;;18.10;66.12;95251.94;4971439;28;20227;-87
2023/05/22 05:17:07;;;;;;;11.90;10.60;;;;;;;18.17;65.62;95250.00;4970850;28;20208;-88
2023/05/22 05:19:34;;;;;;;9.55;8.70;;;;;;;18.24;65.77;95247.25;4971294;28;20276;-87
2023/05/22 05:22:01;;;;;;;9.95;8.65;;;;;;;18.29;65.58;95255.94;4970884;28;20220;-88
2023/05/22 05:24:27;;;;;;;12.30;9.02;;;;;;;18.38;65.85;95247.78;4970562;28;20254;-88
2023/05/22 05:26:54;;;;;;;9.45;8.55;;;;;;;18.45;65.96;95253.66;4970555;28;20208;-87
2023/05/22 05:29:21;;;;;;;11.43;8.93;;;;;;;18.48;65.87;95253.94;4975858;28;20314;-87
2023/05/22 05:31:48;;;;;;;9.45;8.50;;;;;;;18.56;65.80;95253.59;4969752;28;20209;-88
2023/05/22 05:34:15;;;;;;;10.85;8.60;;;;;;;18.66;65.79;95260.84;4970234;28;20247;-88
2023/05/22 05:36:41;;;;;;;10.57;9.35;;;;;;;18.69;65.49;95255.13;4970300;28;20208;-87
2023/05/22 05:39:10;;;;;;;9.23;8.35;;;;;;;18.77;65.22;95259.97;4978952;28;20200;-88
2023/05/22 05:41:36;;;;;;;10.07;9.05;;;;;;;18.87;64.97;95256.72;4988992;28;20224;-88
2023/05/22 05:44:03;;;;;;;15.43;8.45;;;;;;;18.95;64.39;95256.34;4989205;28;20203;-88
2023/05/22 05:46:31;;;;;;;8.90;8.00;;;;;;;18.98;64.81;95261.09;4988882;28;20208;-87
2023/05/22 05:48:58;;;;;;;9.13;8.32;;;;;;;18.98;64.56;95261.91;4989701;28;20233;-87
2023/05/22 05:51:25;;;;;;;9.93;8.95;;;;;;;19.08;64.44;95260.47;4989061;28;20209;-87
2023/05/22 05:53:51;;;;;;;9.88;8.75;;;;;;;19.10;64.28;95261.81;4989458;28;20298;-87
2023/05/22 05:56:18;;;;;;;9.18;8.05;;;;;;;19.19;64.20;95265.63;4989486;28;20203;-87
2023/05/22 05:58:47;;;;;;;8.55;7.85;;;;;;;19.24;64.06;95264.91;4989209;28;20289;-88
2023/05/22 06:01:15;;;;;;;9.77;8.35;;;;;;;19.35;63.96;95263.22;4975924;28;20208;-87
2023/05/22 06:03:43;;;;;;;9.57;8.60;;;;;;;19.43;63.20;95270.66;4969292;28;20223;-87
2023/05/22 06:06:10;;;;;;;9.23;8.32;;;;;;;19.48;63.28;95262.88;4968796;28;20251;-88
2023/05/22 06:08:39;;;;;;;8.55;7.85;;;;;;;19.52;62.69;95266.63;4969569;28;20219;-88
2023/05/22 06:11:10;;;;;;;9.95;8.32;;;;;;;19.55;62.54;95269.56;4969595;28;20576;-88
2023/05/22 06:13:37;;;;;;;10.15;8.18;;;;;;;19.59;62.55;95273.28;4969382;28;20208;-87
2023/05/22 06:16:07;;;;;;;9.15;8.25;;;;;;;19.62;62.37;95272.03;4969613;28;20287;-87
2023/05/22 06:18:33;;;;;;;8.43;7.60;;;;;;;19.65;61.80;95266.28;4969696;28;20287;-87
2023/05/22 06:21:01;;;;;;;8.38;7.45;;;;;;;19.65;61.66;95268.91;4969487;28;20596;-87
2023/05/22 06:23:28;;;;;;;8.60;7.80;;;;;;;19.72;61.38;95272.16;4969810;28;20310;-87
2023/05/22 06:25:55;;;;;;;9.98;8.50;;;;;;;19.79;61.54;95271.97;4969931;28;20234;-87
2023/05/22 06:28:21;;;;;;;8.43;7.50;;;;;;;19.89;61.25;95269.47;4969994;28;20355;-89
2023/05/22 06:30:47;;;;;;;8.25;7.45;;;;;;;19.99;60.94;95262.56;4969719;28;20204;-88
2023/05/22 06:33:14;;;;;;;7.80;7.10;;;;;;;20.02;60.38;95266.50;4972397;28;20196;-88
2023/05/22 06:35:41;;;;;;;7.95;7.10;;;;;;;20.06;60.15;95269.44;4980629;28;20220;-87
2023/05/22 06:38:10;;;;;;;7.65;6.97;;;;;;;20.07;60.61;95269.19;4985649;28;20227;-88
2023/05/22 06:40:37;;;;;;;8.43;7.05;;;;;;;20.11;60.53;95269.50;4969238;28;20585;-87
2023/05/22 06:43:03;;;;;;;7.10;6.50;;;;;;;20.15;60.50;95273.22;4969527;28;20224;-87
2023/05/22 06:45:32;;;;;;;8.30;6.68;;;;;;;20.28;60.77;95270.22;4969511;28;20220;-88
2023/05/22 06:47:59;;;;;;;9.00;7.18;;;;;;;20.33;60.29;95263.22;4969224;28;20204;-87
2023/05/22 06:50:28;;;;;;;7.68;6.72;;;;;;;20.46;60.54;95276.97;4969434;28;20216;-87
2023/05/22 06:52:55;;;;;;;8.13;7.32;;;;;;;20.46;60.06;95274.38;4969257;28;20211;-87
2023/05/22 06:55:27;;;;;;;9.70;7.05;;;;;;;20.56;60.50;95269.25;4968954;28;20311;-87
2023/05/22 06:57:53;;;;;;;8.30;7.45;;;;;;;20.52;61.21;95268.16;4969446;28;20227;-87
2023/05/22 07:00:20;;;;;;;9.65;7.03;;;;;;;20.51;60.00;95277.84;4969646;28;20196;-88
2023/05/22 07:02:51;;;;;;;6.97;6.32;;;;;;;20.51;59.27;95277.84;4969208;28;20845;-87
2023/05/22 07:05:18;;;;;;;7.53;6.55;;;;;;;20.50;58.79;95273.63;4968874;28;20751;-87
2023/05/22 07:07:47;;;;;;;7.22;6.38;;;;;;;20.58;59.11;95278.44;4969623;28;20239;-88
2023/05/22 07:10:13;;;;;;;7.65;6.88;;;;;;;20.67;59.36;95282.19;4969122;28;20613;-88
2023/05/22 07:12:41;;;;;;;6.80;6.20;;;;;;;20.71;59.02;95279.88;4968950;28;20205;-88
2023/05/22 07:15:13;;;;;;;7.95;6.95;;;;;;;20.60;59.59;95281.56;4969255;28;20228;-87
2023/05/22 07:17:40;;;;;;;7.20;6.55;;;;;;;20.65;59.19;95279.00;4971266;28;20586;-87
2023/05/22 07:20:08;;;;;;;7.90;7.10;;;;;;;20.69;59.41;95284.56;4972991;28;20211;-87
2023/05/22 07:22:38;;;;;;;7.00;6.20;;;;;;;20.86;60.08;95279.22;4978791;28;20239;-88
2023/05/22 07:25:09;;;;;;;7.10;6.45;;;;;;;20.97;59.19;95286.91;4972243;28;20339;-87
2023/05/22 07:27:38;;;;;;;7.40;6.78;;;;;;;21.13;59.41;95289.66;4972752;28;20231;-88
2023/05/22 07:30:13;;;;;;;7.97;7.20;;;;;;;21.23;59.93;95281.91;4974314;28;20219;-87
2023/05/22 07:32:43;;;;;;;8.10;7.40;;;;;;;21.26;58.79;95278.78;4983427;28;20203;-88
2023/05/22 07:35:10;;;;;;;8.77;7.68;;;;;;;21.32;58.70;95289.06;4992045;28;20716;-88
2023/05/22 07:37:37;;;;;;;7.78;6.97;;;;;;;21.46;58.39;95286.00;4992237;28;20203;-87
2023/05/22 07:40:05;;;;;;;7.90;7.10;;;;;;;21.58;59.21;95283.97;4972892;28;20200;-88
2023/05/22 07:42:35;;;;;;;7.93;7.22;;;;;;;21.51;57.93;95281.59;4972087;28;20228;-87
2023/05/22 07:45:04;;;;;;;9.98;7.60;;;;;;;21.70;58.12;95287.22;4971947;28;20250;-88
2023/05/22 07:47:32;;;;;;;7.93;7.15;;;;;;;21.84;58.45;95285.72;4971985;28;20204;-87
2023/05/22 07:49:59;;;;;;;7.43;6.82;;;;;;;22.01;58.25;95286.38;4972460;28;20255;-88
2023/05/22 07:52:25;;;;;;;11.10;7.68;;;;;;;22.12;58.66;95279.34;4971842;28;20208;-87
2023/05/22 07:54:52;;;;;;;10.00;8.00;;;;;;;22.21;57.59;95275.16;4971580;28;20224;-87
2023/05/22 07:57:22;;;;;;;8.27;7.43;;;;;;;22.32;57.89;95278.63;4971999;28;20208;-88
2023/05/22 07:59:51;;;;;;;7.88;7.20;;;;;;;22.46;58.20;95271.06;4971677;28;20290;-87
2023/05/22 08:02:17;;;;;;;8.40;7.65;;;;;;;22.62;57.10;95276.09;4970859;28;20230;-87
2023/05/22 08:04:47;;;;;;;8.65;7.68;;;;;;;22.75;56.78;95278.19;4971742;28;20644;-87
2023/05/22 08:07:15;;;;;;;8.82;7.63;;;;;;;22.89;57.01;95285.63;4971517;28;20206;-87
2023/05/22 08:09:44;;;;;;;8.23;7.50;;;;;;;23.04;56.54;95275.91;4971225;28;20207;-87
2023/05/22 08:12:11;;;;;;;8.43;7.72;;;;;;;23.15;55.94;95276.69;4971619;28;20577;-87
2023/05/22 08:14:37;;;;;;;8.15;7.13;;;;;;;23.14;56.24;95275.13;4971728;28;20224;-87
2023/05/22 08:17:06;;;;;;;8.02;7.32;;;;;;;23.23;56.89;95289.31;4971616;28;20219;-87
2023/05/22 08:19:33;;;;;;;8.25;7.53;;;;;;;23.29;55.97;95285.63;4971614;28;20252;-87
2023/05/22 08:22:01;;;;;;;10.25;8.90;;;;;;;23.40;55.27;95281.16;4970900;28;20868;-87
2023/05/22 08:24:29;;;;;;;8.63;7.82;;;;;;;23.45;55.03;95285.63;4971065;28;20306;-88
2023/05/22 08:26:59;;;;;;;9.00;8.20;;;;;;;23.41;54.65;95283.53;4979137;28;20227;-88
2023/05/22 08:29:30;;;;;;;8.77;7.85;;;;;;;23.52;54.76;95280.91;4982773;28;20200;-87
2023/05/22 08:31:57;;;;;;;8.95;7.47;;;;;;;23.70;55.65;95275.88;4990597;28;20266;-87
2023/05/22 08:34:27;;;;;;;9.57;8.57;;;;;;;23.75;53.87;95281.13;4990479;28;20714;-87
2023/05/22 08:36:53;;;;;;;9.88;7.13;;;;;;;23.91;54.51;95276.63;4990459;28;20200;-87
2023/05/22 08:39:21;;;;;;;8.27;7.55;;;;;;;24.07;54.42;95266.84;4977226;28;20208;-88
2023/05/22 08:41:48;;;;;;;8.77;7.70;;;;;;;24.11;53.54;95270.50;4971170;28;20208;-87
2023/05/22 08:44:15;;;;;;;8.50;7.60;;;;;;;24.17;53.33;95266.81;4970892;28;20232;-88
2023/05/22 08:46:42;;;;;;;11.15;8.45;;;;;;;24.27;53.33;95264.16;4971070;28;20197;-87
2023/05/22 08:49:10;;;;;;;9.27;8.43;;;;;;;24.32;52.31;95266.78;4971230;28;20674;-87
2023/05/22 08:51:39;;;;;;;9.10;8.30;;;;;;;24.19;51.91;95259.44;4970923;28;20251;-87
2023/05/22 08:54:06;;;;;;;8.93;7.47;;;;;;;24.26;52.78;95259.94;4970819;28;20208;-87
2023/05/22 08:56:34;;;;;;;9.57;8.68;;;;;;;24.20;52.88;95262.84;4970896;28;20251;-87
2023/05/22 08:59:02;;;;;;;9.45;8.45;;;;;;;24.43;53.23;95262.25;4970604;28;20843;-88
2023/05/22 09:01:29;;;;;;;8.30;7.63;;;;;;;24.57;52.84;95252.69;4970491;28;20283;-88
2023/05/22 09:03:59;;;;;;;8.35;7.57;;;;;;;24.75;52.87;95256.53;4969771;28;20220;-88
2023/05/22 09:06:27;;;;;;;10.10;8.90;;;;;;;24.67;51.64;95257.09;4970328;28;20215;-88
2023/05/22 09:08:55;;;;;;;9.13;8.25;;;;;;;24.69;52.48;95247.88;4970795;28;20669;-88
2023/05/22 09:11:24;;;;;;;8.52;7.82;;;;;;;24.89;51.67;95254.06;4952080;28;20260;-87
2023/05/22 09:14:06;;;;;;;8.90;8.07;;;;;;;24.94;51.61;95260.13;4970408;28;20231;-88
2023/05/22 09:16:32;;;;;;;8.52;7.82;;;;;;;25.07;51.54;95256.84;4970467;28;20208;-87
2023/05/22 09:18:59;;;;;;;8.48;7.82;;;;;;;25.26;51.73;95258.81;4970443;28;20206;-87
2023/05/22 09:21:28;;;;;;;8.68;7.88;;;;;;;25.30;50.25;95258.00;4970083;28;20203;-88
2023/05/22 09:23:58;;;;;;;9.73;8.90;;;;;;;25.28;49.83;95260.13;4978188;28;20284;-88
2023/05/22 09:26:27;;;;;;;8.52;7.82;;;;;;;25.27;50.25;95253.28;4989894;28;20199;-88
2023/05/22 09:28:55;;;;;;;9.20;8.38;;;;;;;25.47;50.25;95253.09;4989644;28;20256;-87
2023/05/22 09:31:22;;;;;;;9.52;8.73;;;;;;;25.64;50.62;95254.53;4989198;28;20246;-87
2023/05/22 09:33:51;;;;;;;8.68;7.97;;;;;;;25.83;50.38;95257.25;4989877;28;20209;-88
2023/05/22 09:36:18;;;;;;;10.30;9.27;;;;;;;26.03;48.98;95265.72;4989402;28;20219;-88
2023/05/22 09:38:45;;;;;;;9.82;9.13;;;;;;;25.91;49.52;95267.97;4981176;28;20204;-87
2023/05/22 09:41:21;;;;;;;9.90;8.90;;;;;;;25.93;49.86;95265.84;4969628;28;20584;-88
2023/05/22 09:43:52;;;;;;;11.73;9.45;;;;;;;26.09;49.60;95267.25;4969501;28;20223;-87
2023/05/22 09:46:20;;;;;;;11.32;9.57;;;;;;;26.25;49.10;95267.84;4969947;28;20588;-86
2023/05/22 09:48:51;;;;;;;10.48;9.40;;;;;;;26.23;51.07;95267.34;4970143;28;20299;-87
2023/05/22 09:51:22;;;;;;;8.75;7.97;;;;;;;26.45;49.40;95262.34;4969486;28;20196;-88
2023/05/22 09:53:52;;;;;;;12.23;9.75;;;;;;;26.51;49.41;95254.34;4970452;28;20208;-88
2023/05/22 09:56:22;;;;;;;13.23;8.55;;;;;;;26.53;51.24;95263.56;4969878;28;20210;-88
2023/05/22 09:58:57;;;;;;;9.10;8.27;;;;;;;26.63;49.18;95265.28;4970242;28;20200;-88
2023/05/22 10:01:26;;;;;;;10.38;9.30;;;;;;;26.75;48.67;95258.47;4969636;28;20292;-87
2023/05/22 10:03:55;;;;;;;9.50;8.30;;;;;;;26.92;48.23;95265.13;4968991;28;20235;-88
2023/05/22 10:06:23;;;;;;;10.88;8.95;;;;;;;26.95;49.13;95261.94;4969336;28;20269;-88
2023/05/22 10:08:54;;;;;;;9.82;8.93;;;;;;;27.00;49.01;95259.22;4968863;28;20203;-88
2023/05/22 10:11:21;;;;;;;10.52;9.38;;;;;;;26.90;48.11;95257.50;4969282;28;20207;-87
2023/05/22 10:13:50;;;;;;;9.38;8.57;;;;;;;26.99;48.23;95253.16;4969232;28;20211;-88
2023/05/22 10:16:17;;;;;;;9.52;8.32;;;;;;;26.93;47.78;95256.94;4969198;28;20664;-88
2023/05/22 10:18:47;;;;;;;9.05;8.20;;;;;;;27.08;47.16;95259.38;4975964;28;20222;-88
2023/05/22 10:21:15;;;;;;;8.82;7.93;;;;;;;27.07;47.48;95255.16;4980104;28;20203;-88
2023/05/22 10:23:42;;;;;;;10.55;8.88;;;;;;;27.12;47.73;95252.44;4988495;28;20223;-88
2023/05/22 10:26:10;;;;;;;8.65;7.95;;;;;;;27.29;47.51;95254.53;4988522;28;20231;-88
2023/05/22 10:28:46;;;;;;;9.02;8.13;;;;;;;27.33;46.40;95255.50;4988604;28;20203;-88
2023/05/22 10:31:26;;;;;;;9.82;8.15;;;;;;;27.48;46.42;95252.63;4988818;28;20656;-88
2023/05/22 10:34:01;;;;;;;8.48;7.68;;;;;;;27.49;45.99;95250.75;4988678;28;20206;-88
2023/05/22 10:36:42;;;;;;;8.55;7.75;;;;;;;27.62;47.78;95257.16;4988983;28;20188;-88
2023/05/22 10:39:27;;;;;;;9.27;8.45;;;;;;;27.72;46.66;95249.81;4977012;28;20195;-88
2023/05/22 10:41:53;;;;;;;9.45;8.70;;;;;;;27.80;46.27;95249.16;4969224;28;20204;-88
2023/05/22 10:44:22;;;;;;;8.88;8.18;;;;;;;27.78;46.42;95246.00;4968675;28;20228;-88
2023/05/22 10:46:52;;;;;;;8.88;8.07;;;;;;;27.84;47.12;95250.16;4969145;28;20192;-88
2023/05/22 10:49:27;;;;;;;10.05;8.65;;;;;;;27.91;47.04;95246.31;4968746;28;20207;-88
2023/05/22 10:51:56;;;;;;;9.73;8.98;;;;;;;27.86;46.44;95247.22;4970138;28;20231;-87
2023/05/22 10:54:44;;;;;;;9.50;8.60;;;;;;;27.85;45.91;95249.06;4972804;28;20226;-88
2023/05/22 10:57:14;;;;;;;9.02;8.30;;;;;;;27.90;45.80;95247.41;4973144;28;20670;-88
2023/05/22 10:59:41;;;;;;;8.85;8.05;;;;;;;27.79;45.80;95249.44;4972962;28;20778;-88
2023/05/22 11:02:19;;;;;;;9.23;8.52;;;;;;;27.87;45.28;95250.63;4972461;28;20212;-88
2023/05/22 11:04:47;;;;;;;9.25;8.55;;;;;;;27.69;44.88;95239.06;4972866;28;20227;-87
2023/05/22 11:07:14;;;;;;;8.40;7.70;;;;;;;27.70;45.61;95238.78;4972690;28;20206;-88
2023/05/22 11:09:42;;;;;;;8.90;8.00;;;;;;;27.72;45.86;95233.16;4972502;28;20196;-87
2023/05/22 11:12:20;;;;;;;9.10;8.23;;;;;;;27.82;46.01;95239.06;4972848;28;20232;-87
2023/05/22 11:14:57;;;;;;;8.77;8.00;;;;;;;27.92;45.37;95245.22;4972602;28;20215;-88
2023/05/22 11:17:26;;;;;;;8.80;8.00;;;;;;;27.98;45.08;95241.41;4973149;28;20188;-88
2023/05/22 11:20:11;;;;;;;8.95;8.15;;;;;;;28.03;45.20;95228.09;4973122;28;20227;-88
2023/05/22 11:22:41;;;;;;;9.55;8.75;;;;;;;28.13;45.27;95239.25;4972722;28;20192;-88
2023/05/22 11:25:09;;;;;;;9.77;8.98;;;;;;;28.11;45.14;95230.03;4972101;28;20244;-88
2023/05/22 11:27:37;;;;;;;9.38;8.57;;;;;;;28.17;44.22;95229.63;4972299;28;20272;-88
2023/05/22 11:30:06;;;;;;;9.30;8.52;;;;;;;28.15;46.39;95228.34;4972652;28;20236;-88
2023/05/22 11:32:35;;;;;;;9.73;8.93;;;;;;;28.25;45.06;95230.06;4971897;28;20520;-87
2023/05/22 11:35:04;;;;;;;12.25;8.82;;;;;;;28.28;45.39;95226.81;4972522;28;20235;-88
2023/05/22 11:37:31;;;;;;;10.13;9.10;;;;;;;28.30;45.78;95230.72;4972277;28;20493;-88
2023/05/22 11:39:58;;;;;;;9.65;8.93;;;;;;;28.36;45.93;95224.25;4972025;28;20196;-88